createdAt,value
2022-10-09T00:01:13.761Z,3.35
2022-10-09T00:03:43.344Z,5.93
2022-10-09T00:06:15.698Z,6.13
2022-10-09T00:08:45.793Z,3.97
2022-10-09T00:11:18.864Z,5.70
2022-10-09T00:13:46.202Z,6.28
2022-10-09T00:16:14.687Z,5.93
2022-10-09T00:18:42.911Z,6.13
2022-10-09T00:21:36.279Z,8.13
2022-10-09T00:24:04.450Z,5.65
2022-10-09T00:26:32.087Z,6.15
2022-10-09T00:28:59.122Z,4.47
2022-10-09T00:31:26.807Z,5.30
2022-10-09T00:33:53.971Z,9.82
2022-10-09T00:36:23.259Z,8.35
2022-10-09T00:38:50.650Z,5.68
2022-10-09T00:41:20.975Z,4.47
2022-10-09T00:43:52.068Z,5.20
2022-10-09T00:46:25.919Z,5.15
2022-10-09T00:49:10.603Z,5.05
2022-10-09T00:51:38.224Z,5.40
2022-10-09T00:54:08.734Z,6.47
2022-10-09T00:56:35.738Z,5.80
2022-10-09T00:59:03.613Z,8.13
2022-10-09T01:01:30.702Z,7.43
2022-10-09T01:03:57.388Z,7.85
2022-10-09T01:06:31.591Z,6.50
2022-10-09T01:09:08.016Z,8.02
2022-10-09T01:12:01.111Z,9.75
2022-10-09T01:14:33.015Z,6.57
2022-10-09T01:17:21.257Z,5.90
2022-10-09T01:20:17.560Z,5.65
2022-10-09T01:22:53.321Z,9.38
2022-10-09T01:25:32.312Z,9.52
2022-10-09T01:28:01.726Z,7.47
2022-10-09T01:30:30.204Z,6.38
2022-10-09T01:32:58.601Z,7.50
2022-10-09T01:35:26.555Z,8.13
2022-10-09T01:37:54.993Z,6.68
2022-10-09T01:40:23.681Z,6.15
2022-10-09T01:42:51.145Z,6.50
2022-10-09T01:45:20.190Z,5.53
2022-10-09T01:47:46.942Z,6.63
2022-10-09T01:50:32.339Z,7.00
2022-10-09T01:53:10.348Z,9.00
2022-10-09T01:55:57.182Z,4.97
2022-10-09T01:58:34.012Z,6.82
2022-10-09T02:01:03.020Z,7.10
2022-10-09T02:03:32.428Z,8.10
2022-10-09T02:06:02.161Z,7.43
2022-10-09T02:08:32.112Z,7.72
2022-10-09T02:11:02.819Z,5.95
2022-10-09T02:13:32.654Z,6.13
2022-10-09T02:16:11.902Z,8.25
2022-10-09T02:19:01.750Z,8.30
2022-10-09T02:21:54.578Z,4.53
2022-10-09T02:24:23.429Z,4.85
2022-10-09T02:26:53.114Z,6.13
2022-10-09T02:29:20.598Z,8.10
2022-10-09T02:31:47.408Z,6.55
2022-10-09T02:34:18.438Z,4.15
2022-10-09T02:36:46.523Z,6.88
2022-10-09T02:39:13.670Z,3.58
2022-10-09T02:41:40.733Z,4.13
2022-10-09T02:44:08.344Z,6.03
2022-10-09T02:46:35.333Z,4.32
2022-10-09T02:49:02.624Z,8.18
2022-10-09T02:51:29.274Z,3.22
2022-10-09T02:53:56.609Z,4.20
2022-10-09T02:56:23.666Z,3.80
2022-10-09T02:58:50.559Z,3.53
2022-10-09T03:01:17.868Z,4.93
2022-10-09T03:03:45.157Z,6.30
2022-10-09T03:06:14.492Z,4.43
2022-10-09T03:08:44.674Z,5.70
2022-10-09T03:11:12.412Z,3.47
2022-10-09T03:13:39.833Z,4.80
2022-10-09T03:16:09.644Z,4.65
2022-10-09T03:18:37.739Z,6.07
2022-10-09T03:21:14.290Z,5.07
2022-10-09T03:23:42.764Z,5.38
2022-10-09T03:26:12.503Z,4.40
2022-10-09T03:28:41.806Z,6.72
2022-10-09T03:31:13.047Z,5.28
2022-10-09T03:33:48.081Z,4.80
2022-10-09T03:36:15.403Z,4.05
2022-10-09T03:38:42.059Z,10.32
2022-10-09T03:41:09.233Z,4.90
2022-10-09T03:43:36.004Z,6.07
2022-10-09T03:46:07.680Z,7.43
2022-10-09T03:48:35.346Z,6.33
2022-10-09T03:51:02.835Z,4.35
2022-10-09T03:53:33.052Z,5.38
2022-10-09T03:55:59.710Z,4.97
2022-10-09T03:58:26.876Z,5.20
2022-10-09T04:00:53.657Z,4.35
2022-10-09T04:03:21.271Z,4.35
2022-10-09T04:05:48.151Z,5.47
2022-10-09T04:08:15.410Z,6.03
2022-10-09T04:10:42.124Z,5.40
2022-10-09T04:13:11.449Z,5.70
2022-10-09T04:15:38.797Z,6.43
2022-10-09T04:18:06.101Z,6.32
2022-10-09T04:20:32.959Z,4.38
2022-10-09T04:22:59.746Z,5.20
2022-10-09T04:25:26.632Z,5.05
2022-10-09T04:27:53.261Z,6.40
2022-10-09T04:30:19.928Z,7.00
2022-10-09T04:32:48.394Z,5.63
2022-10-09T04:35:18.415Z,4.00
2022-10-09T04:37:45.171Z,7.05
2022-10-09T04:40:11.864Z,5.35
2022-10-09T04:42:38.591Z,5.55
2022-10-09T04:45:05.905Z,3.70
2022-10-09T04:47:34.007Z,5.90
2022-10-09T04:50:00.649Z,4.47
2022-10-09T04:52:27.357Z,4.97
2022-10-09T04:54:56.978Z,4.82
2022-10-09T04:57:23.645Z,5.18
2022-10-09T04:59:50.403Z,8.55
2022-10-09T05:02:17.281Z,9.93
2022-10-09T05:04:46.401Z,6.30
2022-10-09T05:07:13.089Z,5.57
2022-10-09T05:09:40.254Z,5.90
2022-10-09T05:12:07.208Z,6.53
2022-10-09T05:14:33.970Z,5.30
2022-10-09T05:17:23.338Z,9.93
2022-10-09T05:19:50.828Z,5.28
2022-10-09T05:22:17.517Z,6.25
2022-10-09T05:24:44.627Z,6.35
2022-10-09T05:27:11.782Z,5.88
2022-10-09T05:29:41.486Z,6.38
2022-10-09T05:32:08.231Z,5.65
2022-10-09T05:34:35.582Z,4.95
2022-10-09T05:37:02.474Z,6.10
2022-10-09T05:39:29.100Z,7.93
2022-10-09T05:41:56.143Z,5.55
2022-10-09T05:44:22.997Z,4.68
2022-10-09T05:46:49.616Z,4.93
2022-10-09T05:49:16.550Z,4.35
2022-10-09T05:51:43.621Z,7.20
2022-10-09T05:54:15.545Z,5.82
2022-10-09T05:56:43.542Z,6.78
2022-10-09T05:59:14.798Z,5.72
2022-10-09T06:01:43.868Z,4.13
2022-10-09T06:04:16.132Z,7.03
2022-10-09T06:06:45.041Z,8.20
2022-10-09T06:09:12.875Z,6.47
2022-10-09T06:11:40.688Z,6.25
2022-10-09T06:14:10.249Z,7.75
2022-10-09T06:16:40.017Z,6.63
2022-10-09T06:19:08.413Z,7.97
2022-10-09T06:21:35.659Z,8.27
2022-10-09T06:24:04.698Z,6.50
2022-10-09T06:26:32.258Z,7.97
2022-10-09T06:29:01.390Z,7.13
2022-10-09T06:31:31.099Z,8.40
2022-10-09T06:34:03.609Z,9.38
2022-10-09T06:36:33.515Z,6.80
2022-10-09T06:39:02.199Z,9.80
2022-10-09T06:41:29.682Z,8.40
2022-10-09T06:44:04.118Z,9.18
2022-10-09T06:46:36.782Z,7.13
2022-10-09T06:49:04.785Z,8.40
2022-10-09T06:51:32.882Z,8.70
2022-10-09T06:54:03.073Z,8.95
2022-10-09T06:56:32.289Z,8.52
2022-10-09T06:59:05.387Z,7.32
2022-10-09T07:01:33.167Z,8.38
2022-10-09T07:04:02.392Z,10.35
2022-10-09T07:06:31.361Z,7.05
2022-10-09T07:09:01.544Z,7.90
2022-10-09T07:11:34.792Z,8.50
2022-10-09T07:14:07.305Z,10.43
2022-10-09T07:19:08.371Z,8.35
2022-10-09T07:21:36.053Z,9.82
2022-10-09T07:24:04.401Z,11.20
2022-10-09T07:26:33.370Z,6.97
2022-10-09T07:29:00.462Z,7.65
2022-10-09T07:31:27.490Z,7.88
2022-10-09T07:33:55.343Z,8.10
2022-10-09T07:36:22.299Z,7.57
2022-10-09T07:38:53.320Z,7.72
2022-10-09T07:41:21.612Z,8.10
2022-10-09T07:43:48.789Z,7.72
2022-10-09T07:46:18.098Z,6.10
2022-10-09T07:48:45.842Z,7.35
2022-10-09T07:51:23.626Z,6.97
2022-10-09T07:53:51.335Z,9.50
2022-10-09T07:56:20.843Z,7.47
2022-10-09T07:58:55.210Z,6.80
2022-10-09T08:01:23.201Z,7.60
2022-10-09T08:03:50.607Z,7.63
2022-10-09T08:06:18.836Z,9.35
2022-10-09T08:08:49.499Z,5.50
2022-10-09T08:11:17.767Z,7.78
2022-10-09T08:13:46.420Z,7.82
2022-10-09T08:16:14.240Z,6.75
2022-10-09T08:18:41.860Z,8.73
2022-10-09T08:21:14.128Z,9.18
2022-10-09T08:23:41.702Z,8.85
2022-10-09T08:26:17.043Z,7.47
2022-10-09T08:28:44.103Z,7.78
2022-10-09T08:31:13.981Z,6.30
2022-10-09T08:33:42.499Z,10.45
2022-10-09T08:36:12.256Z,14.73
2022-10-09T08:38:48.518Z,6.32
2022-10-09T08:41:44.254Z,6.43
2022-10-09T08:44:19.247Z,9.07
2022-10-09T08:47:03.872Z,6.57
2022-10-09T08:49:52.880Z,10.50
2022-10-09T08:52:28.388Z,12.20
2022-10-09T08:55:00.527Z,7.10
2022-10-09T08:57:32.455Z,7.95
2022-10-09T08:59:59.667Z,9.23
2022-10-09T09:02:47.974Z,5.63
2022-10-09T09:05:40.395Z,7.15
2022-10-09T09:08:33.519Z,6.17
2022-10-09T09:11:22.288Z,8.20
2022-10-09T09:14:02.433Z,6.43
2022-10-09T09:16:52.054Z,6.07
2022-10-09T09:19:27.903Z,5.30
2022-10-09T09:21:55.202Z,11.70
2022-10-09T09:24:37.174Z,7.20
2022-10-09T09:27:12.962Z,5.60
2022-10-09T09:29:45.473Z,8.02
2022-10-09T09:32:20.801Z,10.63
2022-10-09T09:34:48.426Z,8.75
2022-10-09T09:37:15.910Z,6.00
2022-10-09T09:40:34.467Z,8.32
2022-10-09T09:42:30.955Z,9.75
2022-10-09T09:45:06.754Z,7.25
2022-10-09T09:47:39.161Z,5.50
2022-10-09T09:50:18.528Z,11.82
2022-10-09T09:52:56.240Z,8.95
2022-10-09T09:55:29.815Z,8.13
2022-10-09T09:58:03.401Z,5.05
2022-10-09T10:00:30.726Z,8.20
2022-10-09T10:03:14.571Z,7.75
2022-10-09T10:05:43.577Z,8.13
2022-10-09T10:08:31.139Z,6.82
2022-10-09T10:11:05.621Z,11.48
2022-10-09T10:13:46.082Z,4.57
2022-10-09T10:16:25.527Z,7.80
2022-10-09T10:18:54.935Z,7.88
2022-10-09T10:21:22.902Z,7.53
2022-10-09T10:23:52.430Z,7.25
2022-10-09T10:26:29.075Z,6.90
2022-10-09T10:29:17.296Z,7.90
2022-10-09T10:32:13.688Z,8.50
2022-10-09T10:34:53.888Z,8.05
2022-10-09T10:37:29.812Z,8.65
2022-10-09T10:40:03.088Z,5.57
2022-10-09T10:42:53.170Z,7.47
2022-10-09T10:45:31.426Z,6.97
2022-10-09T10:48:01.401Z,9.38
2022-10-09T10:50:36.361Z,7.18
2022-10-09T10:53:25.836Z,9.40
2022-10-09T10:55:58.411Z,8.77
2022-10-09T10:58:44.526Z,5.78
2022-10-09T11:01:31.255Z,7.43
2022-10-09T11:03:57.926Z,8.23
2022-10-09T11:06:37.620Z,7.93
2022-10-09T11:09:42.170Z,7.15
2022-10-09T11:12:48.185Z,6.47
2022-10-09T11:15:24.818Z,6.55
2022-10-09T11:18:17.559Z,5.80
2022-10-09T11:21:00.665Z,5.22
2022-10-09T11:23:48.095Z,6.03
2022-10-09T11:26:36.392Z,7.07
2022-10-09T11:29:26.530Z,8.95
2022-10-09T11:32:00.223Z,4.90
2022-10-09T11:34:43.637Z,8.80
2022-10-09T11:37:23.643Z,5.75
2022-10-09T11:39:50.776Z,6.65
2022-10-09T11:42:23.597Z,6.03
2022-10-09T11:45:27.178Z,5.35
2022-10-09T11:48:03.655Z,11.07
2022-10-09T11:50:45.355Z,11.00
2022-10-09T11:53:16.526Z,6.57
2022-10-09T11:55:43.407Z,4.65
2022-10-09T11:58:19.059Z,6.43
2022-10-09T12:00:50.637Z,4.85
2022-10-09T12:03:35.767Z,8.07
2022-10-09T12:06:03.958Z,6.78
2022-10-09T12:08:30.732Z,5.68
2022-10-09T12:11:07.218Z,5.93
2022-10-09T12:13:36.559Z,6.53
2022-10-09T12:16:03.724Z,6.05
2022-10-09T12:18:34.342Z,5.70
2022-10-09T12:21:05.294Z,6.20
2022-10-09T12:23:35.252Z,6.32
2022-10-09T12:26:03.812Z,7.72
2022-10-09T12:28:40.296Z,9.43
2022-10-09T12:31:17.680Z,5.00
2022-10-09T12:33:51.304Z,4.03
2022-10-09T12:36:26.895Z,5.90
2022-10-09T12:38:53.963Z,7.13
2022-10-09T12:41:34.260Z,7.25
2022-10-09T12:44:07.525Z,4.03
2022-10-09T12:46:37.583Z,6.85
2022-10-09T12:49:14.233Z,4.55
2022-10-09T12:51:42.327Z,4.25
2022-10-09T12:54:10.289Z,8.05
2022-10-09T12:56:38.870Z,4.55
2022-10-09T12:59:07.482Z,8.02
2022-10-09T13:01:35.030Z,7.22
2022-10-09T13:04:04.479Z,6.15
2022-10-09T13:06:47.520Z,5.85
2022-10-09T13:09:34.259Z,5.28
2022-10-09T13:12:09.174Z,4.72
2022-10-09T13:14:43.344Z,5.28
2022-10-09T13:17:39.689Z,8.55
2022-10-09T13:20:12.683Z,5.82
2022-10-09T13:22:39.836Z,5.50
2022-10-09T13:25:07.238Z,5.32
2022-10-09T13:27:37.954Z,8.73
2022-10-09T13:30:06.239Z,8.35
2022-10-09T13:32:33.293Z,3.95
2022-10-09T13:35:00.229Z,4.75
2022-10-09T13:37:27.406Z,4.32
2022-10-09T13:39:59.153Z,6.85
2022-10-09T13:42:30.407Z,5.97
2022-10-09T13:44:57.385Z,4.53
2022-10-09T13:47:24.895Z,7.35
2022-10-09T13:49:51.961Z,11.10
2022-10-09T13:52:19.124Z,5.75
2022-10-09T13:54:45.790Z,4.93
2022-10-09T13:57:12.755Z,5.65
2022-10-09T13:59:39.667Z,4.75
2022-10-09T14:02:06.845Z,5.15
2022-10-09T14:04:33.540Z,7.70
2022-10-09T14:07:00.538Z,7.28
2022-10-09T14:09:27.260Z,4.97
2022-10-09T14:11:54.409Z,4.60
2022-10-09T14:14:22.570Z,4.60
2022-10-09T14:16:50.766Z,6.68
2022-10-09T14:19:18.334Z,6.45
2022-10-09T14:21:46.931Z,4.57
2022-10-09T14:24:14.552Z,6.70
2022-10-09T14:26:41.408Z,4.38
2022-10-09T14:29:09.522Z,6.00
2022-10-09T14:31:36.462Z,5.53
2022-10-09T14:34:03.490Z,5.35
2022-10-09T14:36:32.346Z,8.88
2022-10-09T14:39:03.375Z,6.20
2022-10-09T14:41:35.470Z,3.95
2022-10-09T14:44:04.538Z,5.00
2022-10-09T14:46:33.981Z,5.97
2022-10-09T14:49:07.534Z,4.63
2022-10-09T14:51:37.268Z,2.97
2022-10-09T14:54:05.672Z,4.55
2022-10-09T14:56:32.873Z,5.28
2022-10-09T14:59:01.199Z,3.75
2022-10-09T15:01:29.628Z,5.40
2022-10-09T15:03:57.027Z,8.35
2022-10-09T15:06:24.383Z,5.45
2022-10-09T15:08:55.593Z,10.40
2022-10-09T15:11:22.977Z,8.82
2022-10-09T15:13:50.262Z,6.93
2022-10-09T15:16:19.072Z,7.55
2022-10-09T15:18:48.528Z,11.70
2022-10-09T15:21:21.338Z,12.30
2022-10-09T15:23:48.967Z,11.10
2022-10-09T15:26:16.018Z,11.00
2022-10-09T15:28:45.021Z,8.43
2022-10-09T15:31:28.686Z,7.75
2022-10-09T15:33:57.674Z,6.85
2022-10-09T15:36:25.148Z,6.28
2022-10-09T15:38:52.470Z,7.93
2022-10-09T15:41:24.034Z,8.93
2022-10-09T15:43:52.653Z,7.22
2022-10-09T15:46:19.801Z,7.55
2022-10-09T15:48:47.794Z,8.38
2022-10-09T15:51:15.617Z,5.22
2022-10-09T15:53:45.247Z,11.00
2022-10-09T15:56:16.308Z,6.50
2022-10-09T15:58:43.437Z,6.05
2022-10-09T16:01:13.208Z,6.40
2022-10-09T16:03:40.674Z,6.50
2022-10-09T16:06:13.118Z,6.82
2022-10-09T16:08:40.864Z,7.45
2022-10-09T16:11:09.900Z,7.15
2022-10-09T16:13:39.548Z,9.10
2022-10-09T16:16:09.155Z,6.10
2022-10-09T16:18:36.392Z,7.68
2022-10-09T16:21:08.883Z,14.68
2022-10-09T16:23:36.860Z,11.23
2022-10-09T16:26:05.092Z,9.70
2022-10-09T16:28:33.247Z,6.18
2022-10-09T16:31:00.330Z,9.82
2022-10-09T16:33:29.961Z,6.38
2022-10-09T16:36:14.751Z,7.82
2022-10-09T16:38:42.289Z,9.00
2022-10-09T16:41:12.594Z,18.23
2022-10-09T16:43:40.234Z,13.35
2022-10-09T16:46:28.518Z,16.45
2022-10-09T16:48:57.592Z,12.70
2022-10-09T16:51:30.304Z,10.23
2022-10-09T16:53:59.262Z,11.38
2022-10-09T16:56:29.838Z,12.30
2022-10-09T16:58:59.068Z,10.43
2022-10-09T17:01:28.095Z,11.38
2022-10-09T17:03:56.968Z,8.52
2022-10-09T17:06:24.821Z,10.75
2022-10-09T17:08:54.288Z,13.95
2022-10-09T17:11:22.656Z,9.20
2022-10-09T17:13:50.845Z,10.02
2022-10-09T17:16:21.087Z,9.95
2022-10-09T17:18:48.551Z,13.93
2022-10-09T17:21:17.840Z,11.10
2022-10-09T17:23:45.792Z,10.13
2022-10-09T17:26:16.627Z,12.55
2022-10-09T17:28:44.861Z,8.93
2022-10-09T17:31:14.972Z,10.98
2022-10-09T17:33:45.154Z,9.25
2022-10-09T17:36:13.765Z,7.35
2022-10-09T17:38:40.961Z,9.77
2022-10-09T17:41:10.195Z,10.05
2022-10-09T17:43:38.203Z,14.02
2022-10-09T17:46:05.789Z,14.38
2022-10-09T17:48:34.464Z,11.70
2022-10-09T17:51:06.420Z,14.98
2022-10-09T17:53:33.872Z,12.45
2022-10-09T17:56:04.038Z,14.32
2022-10-09T17:58:30.787Z,14.70
2022-10-09T18:00:58.117Z,12.32
2022-10-09T18:03:25.024Z,11.27
2022-10-09T18:05:52.253Z,11.75
2022-10-09T18:08:20.140Z,10.98
2022-10-09T18:10:47.079Z,13.85
2022-10-09T18:13:14.550Z,12.90
2022-10-09T18:15:44.303Z,11.95
2022-10-09T18:18:11.691Z,7.78
2022-10-09T18:20:40.526Z,8.18
2022-10-09T18:23:10.031Z,10.57
2022-10-09T18:25:44.302Z,7.65
2022-10-09T18:28:13.103Z,10.63
2022-10-09T18:30:46.163Z,9.20
2022-10-09T18:33:12.981Z,10.93
2022-10-09T18:35:40.595Z,28.85
2022-10-09T18:38:09.193Z,14.55
2022-10-09T18:40:45.409Z,11.40
2022-10-09T18:43:13.051Z,7.30
2022-10-09T18:45:46.059Z,9.25
2022-10-09T18:48:14.164Z,11.38
2022-10-09T18:50:41.371Z,11.05
2022-10-09T18:53:08.522Z,8.15
2022-10-09T18:55:35.534Z,11.75
2022-10-09T18:58:04.671Z,10.05
2022-10-09T19:00:31.998Z,13.63
2022-10-09T19:02:59.067Z,13.32
2022-10-09T19:05:25.761Z,14.13
2022-10-09T19:07:52.634Z,13.70
2022-10-09T19:10:19.399Z,9.98
2022-10-09T19:12:46.688Z,10.35
2022-10-09T19:15:16.000Z,9.80
2022-10-09T19:17:42.683Z,12.45
2022-10-09T19:20:09.512Z,10.38
2022-10-09T19:22:36.217Z,8.52
2022-10-09T19:25:03.351Z,11.98
2022-10-09T19:27:31.310Z,10.75
2022-10-09T19:29:58.165Z,9.10
2022-10-09T19:32:24.965Z,8.55
2022-10-09T19:34:51.758Z,8.35
2022-10-09T19:37:18.823Z,14.88
2022-10-09T19:39:48.533Z,11.18
2022-10-09T19:42:19.246Z,8.93
2022-10-09T19:44:48.853Z,10.85
2022-10-09T19:47:16.133Z,10.30
2022-10-09T19:49:42.858Z,9.88
2022-10-09T19:52:09.674Z,11.25
2022-10-09T19:54:37.920Z,13.25
2022-10-09T19:57:04.616Z,12.27
2022-10-09T19:59:31.990Z,12.02
2022-10-09T20:01:58.798Z,8.85
2022-10-09T20:04:25.713Z,10.88
2022-10-09T20:06:52.359Z,7.90
2022-10-09T20:09:20.960Z,10.48
2022-10-09T20:11:48.416Z,11.15
2022-10-09T20:14:15.470Z,10.30
2022-10-09T20:16:42.331Z,10.05
2022-10-09T20:19:09.553Z,8.93
2022-10-09T20:21:36.729Z,9.93
2022-10-09T20:24:04.033Z,9.65
2022-10-09T20:26:33.380Z,10.20
2022-10-09T20:29:03.651Z,9.15
2022-10-09T20:31:31.176Z,11.90
2022-10-09T20:33:59.021Z,14.23
2022-10-09T20:36:30.098Z,10.43
2022-10-09T20:38:59.438Z,11.98
2022-10-09T20:41:28.554Z,11.48
2022-10-09T20:43:57.063Z,14.35
2022-10-09T20:46:25.121Z,14.40
2022-10-09T20:48:52.543Z,11.63
2022-10-09T20:51:22.570Z,14.55
2022-10-09T20:53:56.116Z,10.38
2022-10-09T20:56:24.756Z,13.70
2022-10-09T20:58:52.195Z,11.43
2022-10-09T21:01:19.720Z,13.13
2022-10-09T21:03:46.580Z,12.80
2022-10-09T21:06:16.397Z,15.93
2022-10-09T21:08:43.555Z,14.10
2022-10-09T21:11:12.940Z,11.90
2022-10-09T21:13:40.608Z,13.90
2022-10-09T21:16:09.578Z,14.82
2022-10-09T21:18:37.725Z,15.35
2022-10-09T21:21:10.648Z,13.48
2022-10-09T21:23:37.719Z,11.93
2022-10-09T21:26:05.117Z,12.68
2022-10-09T21:28:32.230Z,14.35
2022-10-09T21:30:58.938Z,13.70
2022-10-09T21:33:26.831Z,13.18
2022-10-09T21:35:56.290Z,12.68
2022-10-09T21:38:23.838Z,11.85
2022-10-09T21:40:50.874Z,16.02
2022-10-09T21:43:18.630Z,12.95
2022-10-09T21:45:50.209Z,12.75
2022-10-09T21:48:17.396Z,13.68
2022-10-09T21:50:44.950Z,14.38
2022-10-09T21:53:12.607Z,11.30
2022-10-09T21:55:39.693Z,15.02
2022-10-09T21:58:06.951Z,11.50
2022-10-09T22:00:34.120Z,10.57
2022-10-09T22:03:01.210Z,12.15
2022-10-09T22:05:27.970Z,11.88
2022-10-09T22:07:54.858Z,12.77
2022-10-09T22:10:21.718Z,11.63
2022-10-09T22:12:48.953Z,15.20
2022-10-09T22:15:16.182Z,12.05
2022-10-09T22:17:43.355Z,13.95
2022-10-09T22:20:10.309Z,9.35
2022-10-09T22:22:37.354Z,10.73
2022-10-09T22:25:04.630Z,13.52
2022-10-09T22:27:31.825Z,14.70
2022-10-09T22:29:58.446Z,10.50
2022-10-09T22:32:25.671Z,10.50
2022-10-09T22:34:52.542Z,13.27
2022-10-09T22:37:19.753Z,9.40
2022-10-09T22:39:46.583Z,12.40
2022-10-09T22:42:13.530Z,12.23
2022-10-09T22:44:42.943Z,11.70
2022-10-09T22:47:09.710Z,12.50
2022-10-09T22:49:36.513Z,16.42
2022-10-09T22:52:03.727Z,9.57
2022-10-09T22:54:30.426Z,14.18
2022-10-09T22:56:57.157Z,15.55
2022-10-09T22:59:23.909Z,12.38
2022-10-09T23:01:56.734Z,12.85
2022-10-09T23:06:54.004Z,11.55
2022-10-09T23:09:22.599Z,12.00
2022-10-09T23:11:49.959Z,11.32
2022-10-09T23:14:16.907Z,12.85
2022-10-09T23:16:43.990Z,12.30
2022-10-09T23:19:10.799Z,13.82
2022-10-09T23:21:39.955Z,11.48
2022-10-09T23:24:08.352Z,12.90
2022-10-09T23:26:35.978Z,11.30
2022-10-09T23:29:08.889Z,9.57
2022-10-09T23:31:36.946Z,11.30
2022-10-09T23:34:05.303Z,9.82
2022-10-09T23:36:32.385Z,13.38
2022-10-09T23:39:01.155Z,10.18
2022-10-09T23:41:29.258Z,9.80
2022-10-09T23:43:56.163Z,10.80
2022-10-09T23:46:25.724Z,11.95
2022-10-09T23:48:53.126Z,11.40
2022-10-09T23:51:21.478Z,10.80
2022-10-09T23:53:48.234Z,11.88
2022-10-09T23:56:27.790Z,14.23
2022-10-09T23:58:55.786Z,12.00
